Time;durP1;ratioP1;P1;durP2;ratioP2;P2;SDS_P1;SDS_P2;PMS_P1;PMS_P2;Temp;Humidity;BMP_temperature;BMP_pressure;BME280_temperature;BME280_humidity;BME280_pressure;Samples;Min_cycle;Max_cycle;Signal;HPM_P1;HPM_P2
2021/09/24 00:00:58;;;;;;;3.30;3.00;;;;;;;;;;5075859;28;20028;-63
2021/09/24 00:03:24;;;;;;;3.28;2.88;;;;;;;;;;5065090;28;20060;-63
2021/09/24 00:05:50;;;;;;;3.75;3.20;;;;;;;;;;5071316;28;20269;-62
2021/09/24 00:08:16;;;;;;;3.65;3.05;;;;;;;;;;5085863;28;20070;-63
2021/09/24 00:10:42;;;;;;;3.80;3.40;;;;;;;;;;5086176;28;20035;-63
2021/09/24 00:13:08;;;;;;;2.90;2.60;;;;;;;;;;5067204;28;20032;-61
2021/09/24 00:15:34;;;;;;;3.90;3.00;;;;;;;;;;5079096;28;20028;-63
2021/09/24 00:18:00;;;;;;;2.78;2.58;;;;;;;;;;5065286;28;20244;-63
2021/09/24 00:20:26;;;;;;;3.47;3.15;;;;;;;;;;5061526;28;20021;-63
2021/09/24 00:22:52;;;;;;;3.25;2.95;;;;;;;;;;5062791;28;20025;-63
2021/09/24 00:25:19;;;;;;;3.20;2.90;;;;;;;;;;5070700;28;20020;-62
2021/09/24 00:27:45;;;;;;;2.75;2.55;;;;;;;;;;5086009;28;20023;-62
2021/09/24 00:30:11;;;;;;;3.28;2.97;;;;;;;;;;5067687;28;20110;-63
2021/09/24 00:32:38;;;;;;;3.17;2.58;;;;;;;;;;5083471;28;20063;-63
2021/09/24 00:35:05;;;;;;;2.90;2.60;;;;;;;;;;5085936;28;20081;-63
2021/09/24 00:37:32;;;;;;;2.75;2.40;;;;;;;;;;5085816;28;20577;-63
2021/09/24 00:39:59;;;;;;;2.67;2.47;;;;;;;;;;5083645;28;20028;-63
2021/09/24 00:42:25;;;;;;;3.47;2.60;;;;;;;;;;5077451;28;20491;-63
2021/09/24 00:44:51;;;;;;;3.35;2.83;;;;;;;;;;5066056;28;20025;-63
2021/09/24 00:47:18;;;;;;;3.00;2.70;;;;;;;;;;5065876;28;20036;-63
2021/09/24 00:49:44;;;;;;;3.45;2.95;;;;;;;;;;5064739;28;20024;-63
2021/09/24 00:52:11;;;;;;;2.90;2.60;;;;;;;;;;5047748;28;20028;-63
2021/09/24 00:54:40;;;;;;;3.53;3.22;;;;;;;;;;5065283;28;20039;-63
2021/09/24 00:57:07;;;;;;;4.53;3.20;;;;;;;;;;5065261;28;20109;-63
2021/09/24 00:59:34;;;;;;;3.15;2.85;;;;;;;;;;5076208;28;20502;-63
2021/09/24 01:02:00;;;;;;;3.97;3.20;;;;;;;;;;5063740;28;20043;-63
2021/09/24 01:04:26;;;;;;;3.50;3.20;;;;;;;;;;5064812;28;20017;-63
2021/09/24 01:06:52;;;;;;;3.60;3.20;;;;;;;;;;5063729;28;20033;-63
2021/09/24 01:09:18;;;;;;;4.15;3.75;;;;;;;;;;5047579;28;20492;-63
2021/09/24 01:11:45;;;;;;;4.28;3.55;;;;;;;;;;5080791;28;20047;-63
2021/09/24 01:14:11;;;;;;;3.95;3.50;;;;;;;;;;5085265;28;20028;-63
2021/09/24 01:16:38;;;;;;;3.67;3.35;;;;;;;;;;5085173;28;20064;-63
2021/09/24 01:19:04;;;;;;;5.22;4.05;;;;;;;;;;5085277;28;20418;-63
2021/09/24 01:21:31;;;;;;;5.68;4.45;;;;;;;;;;5058179;28;20159;-63
2021/09/24 01:23:57;;;;;;;4.35;3.60;;;;;;;;;;5085662;28;20024;-63
2021/09/24 01:26:23;;;;;;;5.50;4.07;;;;;;;;;;5084530;28;20046;-63
2021/09/24 01:28:49;;;;;;;5.15;4.65;;;;;;;;;;5085748;28;20267;-63
2021/09/24 01:31:16;;;;;;;4.60;4.03;;;;;;;;;;5082783;28;20169;-63
2021/09/24 01:33:48;;;;;;;4.20;3.80;;;;;;;;;;5082970;28;20040;-63
2021/09/24 01:36:14;;;;;;;4.57;3.88;;;;;;;;;;5084733;28;20402;-64
2021/09/24 01:38:40;;;;;;;5.25;4.07;;;;;;;;;;5084585;28;20047;-63
2021/09/24 01:41:07;;;;;;;4.50;3.75;;;;;;;;;;5073222;28;20522;-63
2021/09/24 01:43:33;;;;;;;5.25;4.28;;;;;;;;;;5063736;28;20051;-63
2021/09/24 01:46:01;;;;;;;3.92;3.50;;;;;;;;;;5064679;28;20051;-63
2021/09/24 01:48:27;;;;;;;4.72;4.15;;;;;;;;;;5064439;28;20029;-63
2021/09/24 01:50:54;;;;;;;4.50;3.60;;;;;;;;;;5070084;28;20023;-63
2021/09/24 01:53:20;;;;;;;4.78;4.13;;;;;;;;;;5076949;28;20020;-63
2021/09/24 01:55:46;;;;;;;4.70;4.20;;;;;;;;;;5065047;28;20028;-63
2021/09/24 01:58:13;;;;;;;5.30;4.35;;;;;;;;;;5063752;28;20024;-63
2021/09/24 02:00:40;;;;;;;4.82;4.32;;;;;;;;;;5076622;28;20029;-63
2021/09/24 02:03:06;;;;;;;4.57;4.10;;;;;;;;;;5065836;28;20030;-63
2021/09/24 02:05:32;;;;;;;4.70;3.97;;;;;;;;;;5084852;28;20024;-63
2021/09/24 02:07:59;;;;;;;5.35;4.32;;;;;;;;;;5075588;28;20056;-63
2021/09/24 02:10:26;;;;;;;5.40;4.15;;;;;;;;;;5072471;28;20028;-63
2021/09/24 02:12:57;;;;;;;4.35;3.95;;;;;;;;;;5082470;28;20108;-63
2021/09/24 02:15:24;;;;;;;6.30;4.20;;;;;;;;;;5064190;28;20040;-63
2021/09/24 02:17:49;;;;;;;5.53;4.53;;;;;;;;;;5065469;28;20024;-63
2021/09/24 02:20:17;;;;;;;4.43;4.00;;;;;;;;;;5068077;28;20040;-63
2021/09/24 02:22:43;;;;;;;4.68;4.13;;;;;;;;;;5068066;28;20442;-63
2021/09/24 02:25:09;;;;;;;4.80;4.28;;;;;;;;;;5067563;28;20074;-63
2021/09/24 02:27:35;;;;;;;6.90;4.50;;;;;;;;;;5068129;28;20032;-63
2021/09/24 02:30:02;;;;;;;4.85;4.20;;;;;;;;;;5068810;28;20025;-63
2021/09/24 02:32:28;;;;;;;3.47;3.17;;;;;;;;;;5067450;28;20028;-63
2021/09/24 02:34:54;;;;;;;5.05;3.83;;;;;;;;;;5049346;28;20103;-63
2021/09/24 02:37:20;;;;;;;4.93;4.10;;;;;;;;;;5067471;28;20103;-63
2021/09/24 02:39:46;;;;;;;5.00;4.20;;;;;;;;;;5066241;28;20460;-63
2021/09/24 02:42:12;;;;;;;4.38;3.40;;;;;;;;;;5067780;28;20111;-63
2021/09/24 02:44:38;;;;;;;3.92;3.40;;;;;;;;;;5080429;28;20108;-63
2021/09/24 02:47:08;;;;;;;4.05;3.45;;;;;;;;;;5088384;28;20107;-63
2021/09/24 02:49:37;;;;;;;4.25;3.67;;;;;;;;;;5088649;28;20032;-63
2021/09/24 02:52:04;;;;;;;5.03;3.90;;;;;;;;;;5088889;28;20360;-63
2021/09/24 02:54:30;;;;;;;4.30;3.30;;;;;;;;;;5073512;28;20529;-63
2021/09/24 02:56:56;;;;;;;4.88;3.88;;;;;;;;;;5070298;28;20027;-62
2021/09/24 02:59:23;;;;;;;4.38;3.28;;;;;;;;;;5069036;28;20020;-63
2021/09/24 03:01:49;;;;;;;3.60;3.13;;;;;;;;;;5068665;28;20411;-63
2021/09/24 03:04:16;;;;;;;3.17;2.88;;;;;;;;;;5071854;28;20056;-63
2021/09/24 03:06:42;;;;;;;3.53;2.95;;;;;;;;;;5067437;28;20032;-63
2021/09/24 03:09:08;;;;;;;4.40;3.58;;;;;;;;;;5067373;28;20040;-63
2021/09/24 03:11:34;;;;;;;4.07;3.45;;;;;;;;;;5067969;28;20032;-63
2021/09/24 03:14:01;;;;;;;4.35;3.25;;;;;;;;;;5078210;28;20031;-63
2021/09/24 03:16:27;;;;;;;3.47;2.92;;;;;;;;;;5087268;28;20028;-63
2021/09/24 03:18:54;;;;;;;3.90;3.45;;;;;;;;;;5066243;28;20036;-63
2021/09/24 03:21:20;;;;;;;4.25;3.40;;;;;;;;;;5066748;28;20395;-63
2021/09/24 03:23:46;;;;;;;4.53;3.67;;;;;;;;;;5066013;28;20032;-63
2021/09/24 03:26:13;;;;;;;3.72;3.25;;;;;;;;;;5066982;28;20622;-63
2021/09/24 03:28:39;;;;;;;4.65;3.58;;;;;;;;;;5066712;28;20056;-63
2021/09/24 03:31:05;;;;;;;5.85;4.13;;;;;;;;;;5066467;28;20109;-63
2021/09/24 03:33:32;;;;;;;4.30;3.80;;;;;;;;;;5075773;28;20042;-63
2021/09/24 03:35:58;;;;;;;5.78;3.90;;;;;;;;;;5088448;28;20107;-63
2021/09/24 03:38:24;;;;;;;5.82;3.63;;;;;;;;;;5088180;28;20056;-63
2021/09/24 03:40:50;;;;;;;4.57;4.10;;;;;;;;;;5088667;28;20492;-63
2021/09/24 03:43:16;;;;;;;4.25;3.78;;;;;;;;;;5081504;28;20060;-63
2021/09/24 03:45:42;;;;;;;3.80;3.40;;;;;;;;;;5068264;28;20397;-63
2021/09/24 03:48:08;;;;;;;4.20;3.65;;;;;;;;;;5068163;28;20081;-62
2021/09/24 03:50:34;;;;;;;3.90;3.45;;;;;;;;;;5068535;28;20031;-63
2021/09/24 03:53:00;;;;;;;4.38;3.70;;;;;;;;;;5067802;28;20155;-62
2021/09/24 03:55:26;;;;;;;4.10;3.67;;;;;;;;;;5067913;28;20392;-62
2021/09/24 03:57:53;;;;;;;5.43;4.45;;;;;;;;;;5068120;28;20043;-63
2021/09/24 04:00:19;;;;;;;6.55;4.70;;;;;;;;;;5067522;28;20039;-63
2021/09/24 04:02:45;;;;;;;5.32;4.55;;;;;;;;;;5066543;28;20028;-63
2021/09/24 04:05:11;;;;;;;6.80;5.03;;;;;;;;;;5067890;28;20039;-63
2021/09/24 04:07:38;;;;;;;5.45;4.72;;;;;;;;;;5067996;28;20438;-63
2021/09/24 04:10:04;;;;;;;6.57;5.45;;;;;;;;;;5067617;28;20082;-63
2021/09/24 04:12:30;;;;;;;5.65;4.90;;;;;;;;;;5069099;28;20481;-63
2021/09/24 04:14:57;;;;;;;5.38;4.38;;;;;;;;;;5088140;28;20024;-63
2021/09/24 04:17:23;;;;;;;5.63;4.65;;;;;;;;;;5087522;28;20028;-63
2021/09/24 04:19:49;;;;;;;5.88;4.60;;;;;;;;;;5087943;28;20352;-63
2021/09/24 04:22:15;;;;;;;5.88;4.55;;;;;;;;;;5085701;28;20421;-62
2021/09/24 04:24:41;;;;;;;4.35;3.85;;;;;;;;;;5087698;28;20030;-62
2021/09/24 04:27:07;;;;;;;4.80;4.22;;;;;;;;;;5079843;28;20503;-62
2021/09/24 04:29:33;;;;;;;4.57;4.13;;;;;;;;;;5067833;28;20106;-62
2021/09/24 04:31:59;;;;;;;4.68;4.18;;;;;;;;;;5068093;28;20580;-63
2021/09/24 04:34:25;;;;;;;6.07;4.68;;;;;;;;;;5086628;28;20028;-63
2021/09/24 04:36:51;;;;;;;5.38;4.45;;;;;;;;;;5074148;28;20400;-63
2021/09/24 04:39:17;;;;;;;5.68;4.78;;;;;;;;;;5066868;28;20094;-63
2021/09/24 04:41:43;;;;;;;6.95;5.00;;;;;;;;;;5066413;28;20451;-63
2021/09/24 04:44:09;;;;;;;7.22;5.22;;;;;;;;;;5067121;28;20028;-63
2021/09/24 04:46:36;;;;;;;6.10;4.95;;;;;;;;;;5071191;28;20028;-63
2021/09/24 04:49:02;;;;;;;6.20;4.90;;;;;;;;;;5087856;28;20080;-63
2021/09/24 04:51:28;;;;;;;8.35;5.18;;;;;;;;;;5087164;28;20032;-63
2021/09/24 04:53:54;;;;;;;8.20;5.28;;;;;;;;;;5087274;28;20028;-63
2021/09/24 04:56:21;;;;;;;5.32;4.80;;;;;;;;;;5084893;28;20043;-63
2021/09/24 04:58:47;;;;;;;6.50;4.75;;;;;;;;;;5087309;28;20028;-63
2021/09/24 05:01:13;;;;;;;5.32;4.43;;;;;;;;;;5078631;28;20117;-63
2021/09/24 05:03:39;;;;;;;5.97;4.50;;;;;;;;;;5085250;28;20499;-63
2021/09/24 05:06:05;;;;;;;5.35;4.60;;;;;;;;;;5086169;28;20020;-63
2021/09/24 05:08:31;;;;;;;5.10;4.32;;;;;;;;;;5067828;28;20072;-63
2021/09/24 05:10:57;;;;;;;5.63;4.68;;;;;;;;;;5065240;28;20033;-63
2021/09/24 05:13:23;;;;;;;5.68;4.10;;;;;;;;;;5074655;28;20498;-63
2021/09/24 05:15:49;;;;;;;5.07;4.05;;;;;;;;;;5071342;28;20482;-61
2021/09/24 05:18:16;;;;;;;4.93;4.22;;;;;;;;;;5047890;28;20468;-62
2021/09/24 05:20:42;;;;;;;5.13;4.18;;;;;;;;;;5069730;28;20047;-62
2021/09/24 05:23:09;;;;;;;4.78;4.22;;;;;;;;;;5083762;28;20441;-62
2021/09/24 05:25:35;;;;;;;7.25;4.63;;;;;;;;;;5087060;28;20089;-62
2021/09/24 05:28:01;;;;;;;4.90;4.07;;;;;;;;;;5086804;28;20037;-62
2021/09/24 05:30:27;;;;;;;5.47;4.70;;;;;;;;;;5074000;28;20029;-62
2021/09/24 05:32:53;;;;;;;6.53;4.65;;;;;;;;;;5083083;28;20070;-62
2021/09/24 05:35:20;;;;;;;6.15;4.57;;;;;;;;;;5067809;28;20063;-63
2021/09/24 05:37:46;;;;;;;5.55;4.47;;;;;;;;;;5066065;28;20028;-63
2021/09/24 05:40:12;;;;;;;4.97;4.10;;;;;;;;;;5070206;28;20036;-62
2021/09/24 05:42:39;;;;;;;4.43;3.97;;;;;;;;;;5062168;28;20113;-63
2021/09/24 05:45:06;;;;;;;5.78;4.82;;;;;;;;;;5064726;28;20403;-62
2021/09/24 05:47:32;;;;;;;5.47;4.57;;;;;;;;;;5069093;28;20024;-62
2021/09/24 05:49:58;;;;;;;5.43;4.30;;;;;;;;;;5085101;28;20036;-62
2021/09/24 05:52:24;;;;;;;5.90;4.93;;;;;;;;;;5086779;28;20028;-62
2021/09/24 05:54:50;;;;;;;5.90;4.88;;;;;;;;;;5087856;28;20047;-62
2021/09/24 05:57:16;;;;;;;6.60;4.75;;;;;;;;;;5092154;28;20095;-62
2021/09/24 05:59:42;;;;;;;6.00;4.93;;;;;;;;;;5075979;28;20051;-62
2021/09/24 06:02:08;;;;;;;5.93;4.57;;;;;;;;;;5084414;28;20161;-62
2021/09/24 06:04:34;;;;;;;6.68;5.13;;;;;;;;;;5093489;28;20426;-62
2021/09/24 06:07:01;;;;;;;5.97;4.65;;;;;;;;;;5093722;28;20055;-62
2021/09/24 06:09:27;;;;;;;5.80;4.50;;;;;;;;;;5093015;28;20613;-62
2021/09/24 06:11:53;;;;;;;4.82;3.95;;;;;;;;;;5076747;28;20024;-62
2021/09/24 06:14:19;;;;;;;5.60;4.35;;;;;;;;;;5069434;28;20609;-62
2021/09/24 06:16:45;;;;;;;6.20;4.57;;;;;;;;;;5082505;28;20119;-62
2021/09/24 06:19:11;;;;;;;6.70;4.75;;;;;;;;;;5070897;28;20032;-61
2021/09/24 06:21:38;;;;;;;4.65;4.15;;;;;;;;;;5071214;28;20028;-61
2021/09/24 06:24:04;;;;;;;5.00;4.30;;;;;;;;;;5071455;28;20502;-62
2021/09/24 06:26:31;;;;;;;4.60;3.90;;;;;;;;;;5071378;28;20028;-61
2021/09/24 06:28:58;;;;;;;5.60;4.50;;;;;;;;;;5067921;28;20111;-61
2021/09/24 06:31:24;;;;;;;5.72;4.32;;;;;;;;;;5054412;28;20028;-62
2021/09/24 06:33:50;;;;;;;5.15;4.50;;;;;;;;;;5072026;28;20418;-62
2021/09/24 06:36:18;;;;;;;5.13;4.38;;;;;;;;;;5072544;28;20029;-62
2021/09/24 06:38:45;;;;;;;5.97;4.78;;;;;;;;;;5072281;28;20103;-62
2021/09/24 06:41:11;;;;;;;6.20;5.07;;;;;;;;;;5072578;28;20024;-62
2021/09/24 06:43:37;;;;;;;4.55;4.05;;;;;;;;;;5071996;28;20646;-61
2021/09/24 06:46:03;;;;;;;5.47;4.55;;;;;;;;;;5072775;28;20024;-61
2021/09/24 06:48:29;;;;;;;5.10;4.25;;;;;;;;;;5072306;28;20672;-62
2021/09/24 06:50:55;;;;;;;5.68;4.45;;;;;;;;;;5072387;28;20036;-61
2021/09/24 06:53:22;;;;;;;6.22;4.65;;;;;;;;;;5072258;28;20028;-61
2021/09/24 06:55:48;;;;;;;4.57;3.90;;;;;;;;;;5072422;28;20063;-61
2021/09/24 06:58:14;;;;;;;5.93;4.90;;;;;;;;;;5070801;28;20418;-61
2021/09/24 07:00:40;;;;;;;6.35;4.53;;;;;;;;;;5070550;28;20029;-61
2021/09/24 07:03:07;;;;;;;7.05;5.20;;;;;;;;;;5071676;28;20095;-61
2021/09/24 07:05:33;;;;;;;7.45;5.43;;;;;;;;;;5068662;28;20349;-61
2021/09/24 07:07:59;;;;;;;7.03;4.93;;;;;;;;;;5068967;28;20625;-62
2021/09/24 07:10:25;;;;;;;8.40;6.05;;;;;;;;;;5068599;28;20465;-62
2021/09/24 07:12:51;;;;;;;7.43;5.35;;;;;;;;;;5067722;28;20442;-62
2021/09/24 07:15:17;;;;;;;6.35;4.95;;;;;;;;;;5066944;28;20082;-61
2021/09/24 07:17:43;;;;;;;7.63;4.70;;;;;;;;;;5051632;28;20149;-62
2021/09/24 07:20:10;;;;;;;6.45;4.95;;;;;;;;;;5069057;28;20482;-62
2021/09/24 07:22:36;;;;;;;6.53;5.20;;;;;;;;;;5066866;28;20159;-62
2021/09/24 07:25:03;;;;;;;6.72;4.70;;;;;;;;;;5068358;28;20059;-62
2021/09/24 07:27:29;;;;;;;6.05;4.97;;;;;;;;;;5068060;28;20454;-62
2021/09/24 07:29:55;;;;;;;5.53;4.25;;;;;;;;;;5068121;28;20043;-62
2021/09/24 07:32:22;;;;;;;6.57;5.18;;;;;;;;;;5067976;28;20546;-62
2021/09/24 07:34:48;;;;;;;6.18;4.82;;;;;;;;;;5068217;28;20056;-62
2021/09/24 07:37:15;;;;;;;5.45;4.55;;;;;;;;;;5067590;28;20078;-62
2021/09/24 07:39:41;;;;;;;5.82;4.65;;;;;;;;;;5067634;28;20037;-62
2021/09/24 07:42:07;;;;;;;5.20;4.10;;;;;;;;;;5068106;28;20047;-62
2021/09/24 07:44:33;;;;;;;5.68;4.00;;;;;;;;;;5067936;28;20028;-62
2021/09/24 07:47:00;;;;;;;5.40;4.10;;;;;;;;;;5068005;28;20021;-62
2021/09/24 07:49:26;;;;;;;5.05;3.53;;;;;;;;;;5067837;28;20123;-62
2021/09/24 07:51:53;;;;;;;4.75;3.80;;;;;;;;;;5068043;28;20074;-62
2021/09/24 07:54:21;;;;;;;4.25;3.40;;;;;;;;;;5067779;28;20039;-62
2021/09/24 07:56:52;;;;;;;4.38;3.40;;;;;;;;;;5068465;28;20086;-62
2021/09/24 07:59:20;;;;;;;4.43;3.78;;;;;;;;;;5067215;28;20033;-62
2021/09/24 08:01:46;;;;;;;4.40;3.63;;;;;;;;;;5067883;28;20048;-62
2021/09/24 08:04:13;;;;;;;5.25;4.30;;;;;;;;;;5067473;28;20032;-62
2021/09/24 08:06:39;;;;;;;4.47;3.60;;;;;;;;;;5067069;28;20507;-62
2021/09/24 08:09:05;;;;;;;4.40;3.67;;;;;;;;;;5067856;28;20036;-63
2021/09/24 08:11:33;;;;;;;3.90;3.50;;;;;;;;;;5067758;28;20509;-62
2021/09/24 08:14:00;;;;;;;4.38;3.70;;;;;;;;;;5067414;28;20032;-62
2021/09/24 08:16:27;;;;;;;4.50;3.42;;;;;;;;;;5067121;28;20086;-62
2021/09/24 08:18:53;;;;;;;4.20;3.53;;;;;;;;;;5067359;28;20119;-62
2021/09/24 08:21:22;;;;;;;3.63;3.00;;;;;;;;;;5066980;28;20028;-62
2021/09/24 08:23:48;;;;;;;5.22;4.00;;;;;;;;;;5066061;28;20063;-62
2021/09/24 08:26:15;;;;;;;4.05;3.30;;;;;;;;;;5066862;28;20464;-62
2021/09/24 08:28:41;;;;;;;3.80;2.80;;;;;;;;;;5066377;28;20511;-62
2021/09/24 08:31:07;;;;;;;3.60;3.00;;;;;;;;;;5067157;28;20028;-63
2021/09/24 08:33:33;;;;;;;3.65;3.20;;;;;;;;;;5067364;28;20040;-62
2021/09/24 08:36:00;;;;;;;3.45;2.80;;;;;;;;;;5067186;28;20115;-62
2021/09/24 08:38:27;;;;;;;3.88;2.85;;;;;;;;;;5066633;28;20029;-62
2021/09/24 08:40:55;;;;;;;3.63;2.88;;;;;;;;;;5067122;28;20025;-62
2021/09/24 08:43:22;;;;;;;2.70;2.45;;;;;;;;;;5066215;28;20123;-62
2021/09/24 08:45:48;;;;;;;4.65;3.50;;;;;;;;;;5067095;28;20032;-62
2021/09/24 08:48:15;;;;;;;3.58;3.15;;;;;;;;;;5066853;28;20020;-62
2021/09/24 08:50:42;;;;;;;3.30;3.00;;;;;;;;;;5066609;28;20059;-62
2021/09/24 08:53:09;;;;;;;2.50;2.30;;;;;;;;;;5049112;28;20021;-62
2021/09/24 08:55:35;;;;;;;2.33;1.92;;;;;;;;;;5066326;28;20032;-63
2021/09/24 08:58:03;;;;;;;2.63;2.40;;;;;;;;;;5067046;28;20193;-62
2021/09/24 09:00:29;;;;;;;2.95;2.30;;;;;;;;;;5066266;28;20029;-62
2021/09/24 09:03:11;;;;;;;3.33;2.72;;;;;;;;;;5066212;28;20021;-62
2021/09/24 09:05:42;;;;;;;2.40;2.17;;;;;;;;;;5066429;28;20334;-62
2021/09/24 09:08:16;;;;;;;2.67;2.45;;;;;;;;;;5050546;28;20074;-62
2021/09/24 09:10:44;;;;;;;2.67;2.25;;;;;;;;;;5066242;28;20043;-62
2021/09/24 09:13:12;;;;;;;2.20;2.00;;;;;;;;;;5064737;28;20048;-62
2021/09/24 09:15:39;;;;;;;2.40;2.20;;;;;;;;;;5066196;28;20040;-62
2021/09/24 09:18:05;;;;;;;3.30;3.00;;;;;;;;;;5065703;28;20065;-62
2021/09/24 09:20:32;;;;;;;2.58;2.30;;;;;;;;;;5066763;28;20035;-62
2021/09/24 09:23:01;;;;;;;2.50;2.30;;;;;;;;;;5066576;28;20456;-62
2021/09/24 09:25:32;;;;;;;2.33;2.13;;;;;;;;;;5064074;28;20033;-62
2021/09/24 09:27:59;;;;;;;2.40;2.20;;;;;;;;;;5065250;28;20025;-62
2021/09/24 09:30:26;;;;;;;2.50;2.30;;;;;;;;;;5065704;28;20033;-63
2021/09/24 09:33:04;;;;;;;2.00;1.80;;;;;;;;;;5065902;28;20526;-63
2021/09/24 09:35:34;;;;;;;2.70;2.40;;;;;;;;;;5066502;28;20113;-63
2021/09/24 09:38:00;;;;;;;2.00;1.83;;;;;;;;;;5066280;28;20415;-63
2021/09/24 09:40:27;;;;;;;1.85;1.70;;;;;;;;;;5065734;28;20055;-63
2021/09/24 09:42:55;;;;;;;3.95;3.20;;;;;;;;;;5065938;28;20055;-62
2021/09/24 09:45:22;;;;;;;2.95;2.60;;;;;;;;;;5065552;28;20056;-62
2021/09/24 09:47:49;;;;;;;2.40;2.20;;;;;;;;;;5066002;28;20052;-63
2021/09/24 09:50:17;;;;;;;3.08;2.78;;;;;;;;;;5066194;28;20035;-63
2021/09/24 09:52:58;;;;;;;2.17;1.98;;;;;;;;;;5065977;28;20024;-62
2021/09/24 09:55:27;;;;;;;2.40;2.20;;;;;;;;;;5065590;28;20025;-62
2021/09/24 09:57:54;;;;;;;2.50;2.30;;;;;;;;;;5065617;28;20112;-63
2021/09/24 10:00:20;;;;;;;2.40;2.20;;;;;;;;;;5065663;28;20031;-63
2021/09/24 10:02:47;;;;;;;2.30;2.10;;;;;;;;;;5065545;28;20021;-63
2021/09/24 10:05:34;;;;;;;2.85;2.25;;;;;;;;;;5065467;28;20100;-63
2021/09/24 10:08:17;;;;;;;2.08;1.90;;;;;;;;;;5065982;28;20040;-63
2021/09/24 10:11:15;;;;;;;2.28;2.00;;;;;;;;;;5065599;28;20025;-63
2021/09/24 10:13:53;;;;;;;2.15;1.95;;;;;;;;;;5056642;28;20106;-63
2021/09/24 10:16:20;;;;;;;2.08;1.88;;;;;;;;;;5065303;28;20458;-63
2021/09/24 10:18:46;;;;;;;2.03;1.80;;;;;;;;;;5065891;28;20191;-63
2021/09/24 10:21:12;;;;;;;2.22;1.77;;;;;;;;;;5065650;28;20041;-64
2021/09/24 10:23:38;;;;;;;1.60;1.50;;;;;;;;;;5065482;28;20027;-64
2021/09/24 10:26:09;;;;;;;1.95;1.75;;;;;;;;;;5064728;28;20114;-63
2021/09/24 10:28:36;;;;;;;2.35;2.10;;;;;;;;;;5065627;28;20039;-64
2021/09/24 10:31:03;;;;;;;2.28;1.70;;;;;;;;;;5066186;28;20036;-64
2021/09/24 10:34:00;;;;;;;2.72;2.50;;;;;;;;;;5065637;28;20024;-63
2021/09/24 10:36:32;;;;;;;2.58;2.38;;;;;;;;;;5064244;28;20158;-64
2021/09/24 10:38:59;;;;;;;2.67;2.42;;;;;;;;;;5065552;28;20462;-64
2021/09/24 10:41:25;;;;;;;2.40;2.15;;;;;;;;;;5061510;28;20032;-64
2021/09/24 10:43:52;;;;;;;3.15;2.85;;;;;;;;;;5068012;28;20024;-64
2021/09/24 10:46:26;;;;;;;2.88;2.58;;;;;;;;;;5067642;28;20049;-64
2021/09/24 10:49:10;;;;;;;2.50;2.30;;;;;;;;;;5067545;28;20029;-65
2021/09/24 10:51:44;;;;;;;2.53;2.10;;;;;;;;;;5047611;28;20029;-65
2021/09/24 10:54:10;;;;;;;;;;;;;;;;;;5058554;28;20031;-65
2021/09/24 10:56:36;;;;;;;3.97;2.85;;;;;;;;;;5066321;28;20031;-64
2021/09/24 10:59:21;;;;;;;3.08;2.53;;;;;;;;;;5067018;28;20253;-64
2021/09/24 11:01:48;;;;;;;2.63;2.20;;;;;;;;;;5066451;28;20025;-64
2021/09/24 11:04:14;;;;;;;2.35;2.15;;;;;;;;;;5048966;28;20029;-64
2021/09/24 11:06:46;;;;;;;2.00;1.80;;;;;;;;;;5047509;28;20105;-64
2021/09/24 11:09:16;;;;;;;2.17;1.77;;;;;;;;;;5066642;28;20090;-64
2021/09/24 11:12:01;;;;;;;1.85;1.75;;;;;;;;;;5065829;28;20431;-64
2021/09/24 11:14:45;;;;;;;1.90;1.70;;;;;;;;;;5066098;28;20039;-64
2021/09/24 11:17:11;;;;;;;;;;;;;;;;;;5046105;28;20035;-63
2021/09/24 11:19:49;;;;;;;1.65;1.55;;;;;;;;;;5065761;28;19943;-64
2021/09/24 11:22:18;;;;;;;1.65;1.55;;;;;;;;;;5065669;28;20110;-63
2021/09/24 11:24:49;;;;;;;1.48;1.33;;;;;;;;;;5066150;28;20024;-64
2021/09/24 11:27:30;;;;;;;2.20;2.00;;;;;;;;;;5047171;28;20028;-63
2021/09/24 11:30:05;;;;;;;2.97;1.65;;;;;;;;;;5066090;28;20404;-64
2021/09/24 11:32:36;;;;;;;1.98;1.88;;;;;;;;;;5065900;28;20577;-64
2021/09/24 11:35:03;;;;;;;1.85;1.75;;;;;;;;;;5048167;28;20032;-63
2021/09/24 11:37:30;;;;;;;1.65;1.52;;;;;;;;;;5066035;28;20170;-64
2021/09/24 11:39:57;;;;;;;1.80;1.70;;;;;;;;;;5065895;28;20039;-64
2021/09/24 11:42:24;;;;;;;2.25;1.75;;;;;;;;;;5065538;28;20028;-63
2021/09/24 11:44:51;;;;;;;1.38;1.27;;;;;;;;;;5065784;28;20309;-64
2021/09/24 11:47:21;;;;;;;1.63;1.30;;;;;;;;;;5065828;28;20028;-63
2021/09/24 11:49:59;;;;;;;1.75;1.65;;;;;;;;;;5046799;28;20024;-63
2021/09/24 11:52:33;;;;;;;1.73;1.50;;;;;;;;;;5066128;28;20040;-63
2021/09/24 11:55:17;;;;;;;1.60;1.50;;;;;;;;;;5045970;28;20503;-63
2021/09/24 11:57:55;;;;;;;1.80;1.70;;;;;;;;;;5065375;28;20124;-63
2021/09/24 12:00:21;;;;;;;1.40;1.30;;;;;;;;;;5065224;28;20193;-63
2021/09/24 12:02:47;;;;;;;1.52;1.35;;;;;;;;;;5064945;28;20535;-63
2021/09/24 12:05:14;;;;;;;1.80;1.70;;;;;;;;;;5065565;28;20142;-63
2021/09/24 12:07:49;;;;;;;1.38;1.27;;;;;;;;;;5064344;28;20445;-64
2021/09/24 12:10:16;;;;;;;1.58;1.48;;;;;;;;;;5059476;28;20039;-64
2021/09/24 12:12:44;;;;;;;1.33;1.23;;;;;;;;;;5057080;28;20033;-64
2021/09/24 12:15:10;;;;;;;1.60;1.50;;;;;;;;;;5061858;28;20025;-65
2021/09/24 12:17:36;;;;;;;1.40;1.30;;;;;;;;;;5065378;28;20036;-64
2021/09/24 12:20:03;;;;;;;1.20;1.10;;;;;;;;;;5067675;28;20031;-64
2021/09/24 12:22:29;;;;;;;2.63;1.67;;;;;;;;;;5068359;28;20035;-64
2021/09/24 12:24:56;;;;;;;2.03;1.70;;;;;;;;;;5067038;28;20148;-64
2021/09/24 12:27:25;;;;;;;1.85;1.70;;;;;;;;;;5066537;28;20024;-64
2021/09/24 12:29:53;;;;;;;1.65;1.52;;;;;;;;;;5065747;28;20032;-65
2021/09/24 12:32:24;;;;;;;1.95;1.75;;;;;;;;;;5067086;28;20443;-64
2021/09/24 12:35:03;;;;;;;2.38;2.17;;;;;;;;;;5067168;28;20020;-65
2021/09/24 12:37:40;;;;;;;1.80;1.70;;;;;;;;;;5066709;28;20074;-65
2021/09/24 12:40:14;;;;;;;1.80;1.70;;;;;;;;;;5066896;28;20032;-65
2021/09/24 12:42:41;;;;;;;1.98;1.88;;;;;;;;;;5066920;28;20043;-65
2021/09/24 12:45:12;;;;;;;2.72;1.88;;;;;;;;;;5066657;28;20408;-65
2021/09/24 12:47:39;;;;;;;1.80;1.70;;;;;;;;;;5048483;28;20047;-65
2021/09/24 12:50:07;;;;;;;1.70;1.60;;;;;;;;;;5067075;28;20028;-65
2021/09/24 12:52:33;;;;;;;1.70;1.60;;;;;;;;;;5067307;28;20036;-64
2021/09/24 12:55:00;;;;;;;1.60;1.50;;;;;;;;;;5066575;28;20112;-65
2021/09/24 12:57:26;;;;;;;1.55;1.45;;;;;;;;;;5063316;28;20040;-65
2021/09/24 12:59:54;;;;;;;1.42;1.33;;;;;;;;;;5046609;28;20029;-65
2021/09/24 13:02:21;;;;;;;1.90;1.80;;;;;;;;;;5045086;28;20452;-65
2021/09/24 13:04:47;;;;;;;1.90;1.80;;;;;;;;;;5046793;28;20531;-65
2021/09/24 13:07:23;;;;;;;1.60;1.50;;;;;;;;;;5046691;28;20480;-65
2021/09/24 13:09:59;;;;;;;1.90;1.80;;;;;;;;;;5046173;28;20024;-65
2021/09/24 13:12:25;;;;;;;1.70;1.60;;;;;;;;;;5059801;28;20036;-65
2021/09/24 13:14:51;;;;;;;1.80;1.70;;;;;;;;;;5079577;28;20070;-65
2021/09/24 13:17:17;;;;;;;1.80;1.70;;;;;;;;;;5065878;28;20689;-65
2021/09/24 13:19:43;;;;;;;1.73;1.63;;;;;;;;;;5066731;28;20468;-65
2021/09/24 13:22:09;;;;;;;2.10;1.90;;;;;;;;;;5067052;28;20032;-65
2021/09/24 13:24:36;;;;;;;1.85;1.75;;;;;;;;;;5067335;28;20024;-65
2021/09/24 13:27:02;;;;;;;1.60;1.50;;;;;;;;;;5067831;28;20024;-66
2021/09/24 13:29:28;;;;;;;2.03;1.80;;;;;;;;;;5068025;28;20518;-66
2021/09/24 13:31:55;;;;;;;1.60;1.50;;;;;;;;;;5066464;28;20602;-66
2021/09/24 13:34:21;;;;;;;1.60;1.50;;;;;;;;;;5079770;28;20028;-66
2021/09/24 13:36:47;;;;;;;1.52;1.42;;;;;;;;;;5087578;28;20020;-66
2021/09/24 13:39:13;;;;;;;1.40;1.30;;;;;;;;;;5087495;28;20399;-66
2021/09/24 13:41:39;;;;;;;2.22;1.60;;;;;;;;;;5067810;28;20111;-67
2021/09/24 13:44:05;;;;;;;1.40;1.30;;;;;;;;;;5066843;28;20025;-66
2021/09/24 13:46:32;;;;;;;1.50;1.40;;;;;;;;;;5066946;28;20074;-65
2021/09/24 13:48:58;;;;;;;1.55;1.45;;;;;;;;;;5063816;28;20039;-65
2021/09/24 13:51:24;;;;;;;1.88;1.77;;;;;;;;;;5045446;28;20447;-65
2021/09/24 13:53:51;;;;;;;1.73;1.60;;;;;;;;;;5050794;28;20071;-65
2021/09/24 13:56:17;;;;;;;1.73;1.40;;;;;;;;;;5066016;28;20298;-66
2021/09/24 13:58:44;;;;;;;1.63;1.52;;;;;;;;;;5064191;28;20085;-65
2021/09/24 14:01:10;;;;;;;1.73;1.63;;;;;;;;;;5062095;28;20529;-64
2021/09/24 14:03:38;;;;;;;2.17;1.50;;;;;;;;;;5050023;28;20029;-65
2021/09/24 14:06:04;;;;;;;1.50;1.40;;;;;;;;;;5059737;28;20029;-64
2021/09/24 14:08:31;;;;;;;1.70;1.60;;;;;;;;;;5054747;28;20024;-65
2021/09/24 14:10:57;;;;;;;1.60;1.50;;;;;;;;;;5066281;28;20029;-65
2021/09/24 14:13:23;;;;;;;1.55;1.45;;;;;;;;;;5065183;28;20029;-65
2021/09/24 14:15:52;;;;;;;1.50;1.40;;;;;;;;;;5057979;28;20039;-65
2021/09/24 14:18:19;;;;;;;2.38;1.52;;;;;;;;;;5071148;28;20017;-65
2021/09/24 14:20:45;;;;;;;1.83;1.73;;;;;;;;;;5070112;28;20036;-65
2021/09/24 14:23:11;;;;;;;1.60;1.50;;;;;;;;;;5070357;28;20075;-66
2021/09/24 14:25:37;;;;;;;1.50;1.40;;;;;;;;;;5050507;28;20521;-65
2021/09/24 14:28:03;;;;;;;1.48;1.38;;;;;;;;;;5059757;28;20028;-65
2021/09/24 14:30:29;;;;;;;2.00;1.80;;;;;;;;;;5063297;28;20063;-65
2021/09/24 14:32:55;;;;;;;1.67;1.58;;;;;;;;;;5067520;28;20426;-65
2021/09/24 14:35:22;;;;;;;1.98;1.80;;;;;;;;;;5070228;28;20075;-65
2021/09/24 14:37:48;;;;;;;1.88;1.77;;;;;;;;;;5077089;28;20025;-66
2021/09/24 14:40:16;;;;;;;2.00;1.80;;;;;;;;;;5061119;28;20374;-65
2021/09/24 14:42:42;;;;;;;1.67;1.58;;;;;;;;;;5049440;28;20025;-66
2021/09/24 14:45:09;;;;;;;1.80;1.70;;;;;;;;;;5066422;28;20039;-66